createdAt,value
2023-12-02T00:00:40.410Z,3.08
2023-12-02T00:03:08.345Z,2.60
2023-12-02T00:05:36.258Z,2.47
2023-12-02T00:08:04.213Z,2.70
2023-12-02T00:10:32.054Z,2.40
2023-12-02T00:13:00.178Z,2.80
2023-12-02T00:15:28.051Z,2.50
2023-12-02T00:17:57.442Z,2.47
2023-12-02T00:20:25.469Z,2.20
2023-12-02T00:22:53.308Z,2.40
2023-12-02T00:25:21.125Z,2.42
2023-12-02T00:27:48.961Z,2.20
2023-12-02T00:30:17.017Z,2.17
2023-12-02T00:32:44.921Z,2.42
2023-12-02T00:35:14.383Z,2.60
2023-12-02T00:37:43.084Z,2.08
2023-12-02T00:40:11.794Z,2.15
2023-12-02T00:42:39.637Z,1.92
2023-12-02T00:45:08.413Z,2.03
2023-12-02T00:47:36.388Z,1.98
2023-12-02T00:50:04.525Z,2.33
2023-12-02T00:52:33.765Z,2.28
2023-12-02T00:55:01.917Z,2.17
2023-12-02T00:57:29.916Z,2.20
2023-12-02T00:59:57.960Z,2.28
2023-12-02T01:02:25.830Z,2.20
2023-12-02T01:04:53.961Z,2.40
2023-12-02T01:07:21.915Z,2.33
2023-12-02T01:09:51.090Z,2.40
2023-12-02T01:12:19.125Z,2.27
2023-12-02T01:14:47.155Z,2.22
2023-12-02T01:17:15.495Z,2.25
2023-12-02T01:19:43.398Z,2.05
2023-12-02T01:22:11.280Z,2.08
2023-12-02T01:24:39.100Z,1.98
2023-12-02T01:27:08.418Z,2.10
2023-12-02T01:29:36.902Z,2.00
2023-12-02T01:32:05.483Z,2.10
2023-12-02T01:34:33.737Z,2.00
2023-12-02T01:37:01.620Z,1.55
2023-12-02T01:39:29.481Z,1.98
2023-12-02T01:41:57.511Z,1.90
2023-12-02T01:44:26.834Z,1.80
2023-12-02T01:46:54.892Z,1.90
2023-12-02T01:49:23.995Z,1.70
2023-12-02T01:51:52.676Z,1.83
2023-12-02T01:54:21.248Z,1.40
2023-12-02T01:56:49.177Z,1.88
2023-12-02T01:59:17.301Z,1.58
2023-12-02T02:01:46.578Z,1.60
2023-12-02T02:04:14.495Z,1.90
2023-12-02T02:06:42.460Z,1.67
2023-12-02T02:09:10.445Z,1.50
2023-12-02T02:11:38.420Z,1.70
2023-12-02T02:14:06.247Z,1.65
2023-12-02T02:16:34.328Z,1.55
2023-12-02T02:19:03.591Z,1.60
2023-12-02T02:21:32.914Z,1.80
2023-12-02T02:24:01.083Z,1.52
2023-12-02T02:26:29.070Z,1.70
2023-12-02T02:28:56.924Z,1.88
2023-12-02T02:31:24.784Z,1.92
2023-12-02T02:33:52.632Z,1.50
2023-12-02T02:36:20.560Z,1.58
2023-12-02T02:38:49.774Z,1.45
2023-12-02T02:41:17.795Z,1.40
2023-12-02T02:43:45.915Z,1.65
2023-12-02T02:46:15.441Z,1.52
2023-12-02T02:48:43.361Z,1.77
2023-12-02T02:51:11.401Z,1.60
2023-12-02T02:53:39.287Z,1.60
2023-12-02T02:56:10.259Z,1.50
2023-12-02T02:58:38.347Z,1.70
2023-12-02T03:01:06.547Z,1.27
2023-12-02T03:03:34.780Z,1.50
2023-12-02T03:06:02.643Z,1.45
2023-12-02T03:08:30.736Z,1.70
2023-12-02T03:10:58.596Z,1.70
2023-12-02T03:13:27.787Z,1.60
2023-12-02T03:15:55.629Z,1.50
2023-12-02T03:18:23.797Z,1.42
2023-12-02T03:20:51.842Z,1.40
2023-12-02T03:23:19.665Z,1.30
2023-12-02T03:25:47.499Z,1.30
2023-12-02T03:28:15.413Z,1.60
2023-12-02T03:30:44.569Z,1.35
2023-12-02T03:33:12.531Z,1.40
2023-12-02T03:35:41.730Z,1.50
2023-12-02T03:38:09.612Z,1.30
2023-12-02T03:40:37.548Z,1.40
2023-12-02T03:43:05.555Z,1.60
2023-12-02T03:45:33.471Z,1.50
2023-12-02T03:48:02.886Z,1.35
2023-12-02T03:50:30.768Z,1.40
2023-12-02T03:52:59.992Z,1.42
2023-12-02T03:55:29.866Z,1.60
2023-12-02T03:57:57.721Z,1.30
2023-12-02T04:00:25.692Z,1.40
2023-12-02T04:02:53.616Z,1.25
2023-12-02T04:05:22.911Z,1.33
2023-12-02T04:07:50.892Z,1.60
2023-12-02T04:10:18.846Z,1.55
2023-12-02T04:12:47.694Z,1.25
2023-12-02T04:15:15.993Z,1.40
2023-12-02T04:17:44.268Z,1.63
2023-12-02T04:20:16.249Z,1.58
2023-12-02T04:22:45.493Z,1.42
2023-12-02T04:25:13.362Z,1.23
2023-12-02T04:27:42.288Z,1.25
2023-12-02T04:30:10.850Z,1.38
2023-12-02T04:32:38.787Z,1.70
2023-12-02T04:35:07.592Z,1.42
2023-12-02T04:37:35.475Z,1.33
2023-12-02T04:40:10.892Z,1.30
2023-12-02T04:42:39.472Z,1.55
2023-12-02T04:45:09.160Z,1.60
2023-12-02T04:47:37.704Z,1.10
2023-12-02T04:50:06.292Z,1.80
2023-12-02T04:52:34.422Z,1.33
2023-12-02T04:55:02.272Z,1.38
2023-12-02T04:57:32.176Z,1.60
2023-12-02T05:00:00.233Z,1.33
2023-12-02T05:02:28.291Z,1.33
2023-12-02T05:04:56.492Z,1.60
2023-12-02T05:07:25.099Z,1.40
2023-12-02T05:09:53.018Z,1.60
2023-12-02T05:12:20.919Z,1.20
2023-12-02T05:14:50.091Z,1.20
2023-12-02T05:17:18.590Z,1.60
2023-12-02T05:19:48.064Z,1.63
2023-12-02T05:22:16.684Z,1.50
2023-12-02T05:24:44.572Z,1.27
2023-12-02T05:27:12.483Z,1.30
2023-12-02T05:29:40.360Z,1.30
2023-12-02T05:32:09.858Z,1.48
2023-12-02T05:34:37.751Z,1.42
2023-12-02T05:37:06.353Z,1.48
2023-12-02T05:39:36.208Z,1.50
2023-12-02T05:42:04.702Z,1.40
2023-12-02T05:44:32.635Z,1.30
2023-12-02T05:47:00.708Z,1.40
2023-12-02T05:49:29.974Z,5.43
2023-12-02T05:51:58.002Z,7.70
2023-12-02T05:54:26.079Z,7.10
2023-12-02T05:56:56.301Z,5.15
2023-12-02T05:59:24.158Z,5.65
2023-12-02T06:01:52.578Z,5.00
2023-12-02T06:04:20.548Z,4.70
2023-12-02T06:06:50.343Z,7.80
2023-12-02T06:09:18.323Z,7.13
2023-12-02T06:11:46.205Z,6.13
2023-12-02T06:14:14.137Z,5.53
2023-12-02T06:16:41.998Z,4.80
2023-12-02T06:19:10.632Z,4.78
2023-12-02T06:21:38.710Z,4.47
2023-12-02T06:24:08.820Z,4.60
2023-12-02T06:26:36.805Z,4.25
2023-12-02T06:29:05.279Z,4.30
2023-12-02T06:31:34.257Z,7.68
2023-12-02T06:34:02.108Z,6.20
2023-12-02T06:36:30.287Z,5.15
2023-12-02T06:39:00.671Z,4.95
2023-12-02T06:41:30.225Z,4.30
2023-12-02T06:43:58.099Z,4.27
2023-12-02T06:46:26.140Z,3.80
2023-12-02T06:48:54.402Z,3.92
2023-12-02T06:51:25.351Z,3.60
2023-12-02T06:53:53.372Z,3.72
2023-12-02T06:56:23.079Z,3.42
2023-12-02T06:58:53.239Z,3.40
2023-12-02T07:01:25.576Z,2.83
2023-12-02T07:03:53.517Z,3.40
2023-12-02T07:06:21.972Z,3.05
2023-12-02T07:08:50.056Z,2.90
2023-12-02T07:11:18.825Z,2.90
2023-12-02T07:13:46.817Z,2.50
2023-12-02T07:16:16.230Z,2.40
2023-12-02T07:18:44.292Z,2.30
2023-12-02T07:21:12.280Z,6.65
2023-12-02T07:23:40.158Z,7.07
2023-12-02T07:26:08.446Z,7.38
2023-12-02T07:28:36.330Z,8.82
2023-12-02T07:31:04.348Z,7.57
2023-12-02T07:33:33.596Z,6.65
2023-12-02T07:36:01.511Z,5.63
2023-12-02T07:38:29.433Z,6.07
2023-12-02T07:40:57.329Z,5.95
2023-12-02T07:43:25.211Z,5.82
2023-12-02T07:45:53.129Z,5.05
2023-12-02T07:48:21.053Z,4.85
2023-12-02T07:50:50.334Z,4.32
2023-12-02T07:53:18.469Z,4.70
2023-12-02T07:55:47.421Z,3.83
2023-12-02T07:58:15.505Z,4.50
2023-12-02T08:00:43.604Z,4.30
2023-12-02T08:03:11.433Z,4.63
2023-12-02T08:08:11.988Z,3.92
2023-12-02T08:10:39.897Z,4.22
2023-12-02T08:13:07.759Z,4.05
2023-12-02T08:15:35.985Z,4.03
2023-12-02T08:18:04.167Z,3.75
2023-12-02T08:20:32.283Z,3.60
2023-12-02T08:23:00.386Z,3.63
2023-12-02T08:25:30.012Z,3.95
2023-12-02T08:27:58.746Z,3.63
2023-12-02T08:30:26.742Z,3.88
2023-12-02T08:32:54.687Z,4.00
2023-12-02T08:35:24.933Z,4.10
2023-12-02T08:37:52.822Z,3.72
2023-12-02T08:40:21.199Z,3.38
2023-12-02T08:42:50.526Z,3.65
2023-12-02T08:45:18.481Z,3.57
2023-12-02T08:47:46.464Z,3.47
2023-12-02T08:50:14.709Z,3.40
2023-12-02T08:52:42.655Z,3.58
2023-12-02T08:55:14.648Z,3.13
2023-12-02T08:57:43.158Z,3.75
2023-12-02T09:00:13.840Z,3.28
2023-12-02T09:02:41.737Z,3.20
2023-12-02T09:05:10.079Z,3.75
2023-12-02T09:07:38.054Z,3.53
2023-12-02T09:10:07.019Z,3.03
2023-12-02T09:12:35.131Z,3.65
2023-12-02T09:15:09.150Z,3.00
2023-12-02T09:18:10.189Z,2.97
2023-12-02T09:20:45.075Z,2.80
2023-12-02T09:23:13.267Z,2.63
2023-12-02T09:25:42.400Z,2.80
2023-12-02T09:28:14.766Z,3.27
2023-12-02T09:30:47.069Z,3.30
2023-12-02T09:33:17.748Z,3.40
2023-12-02T09:35:45.897Z,2.90
2023-12-02T09:38:17.586Z,2.45
2023-12-02T09:41:05.381Z,5.18
2023-12-02T09:43:36.097Z,4.13
2023-12-02T09:46:31.051Z,3.53
2023-12-02T09:49:37.612Z,3.60
2023-12-02T09:52:26.036Z,3.10
2023-12-02T09:55:00.900Z,3.35
2023-12-02T09:57:35.983Z,2.75
2023-12-02T10:00:11.119Z,3.28
2023-12-02T10:02:53.982Z,2.83
2023-12-02T10:05:23.676Z,2.85
2023-12-02T10:08:07.814Z,2.30
2023-12-02T10:10:46.109Z,2.40
2023-12-02T10:13:21.883Z,2.35
2023-12-02T10:15:51.633Z,2.28
2023-12-02T10:18:30.235Z,2.20
2023-12-02T10:21:04.479Z,2.00
2023-12-02T10:23:38.621Z,2.20
2023-12-02T10:26:10.732Z,2.00
2023-12-02T10:28:49.276Z,2.10
2023-12-02T10:31:25.002Z,4.97
2023-12-02T10:34:04.559Z,3.67
2023-12-02T10:36:35.807Z,3.45
2023-12-02T10:39:13.995Z,3.30
2023-12-02T10:41:52.442Z,3.13
2023-12-02T10:44:23.499Z,3.05
2023-12-02T10:46:51.840Z,2.70
2023-12-02T10:49:20.270Z,2.85
2023-12-02T10:54:26.361Z,2.85
2023-12-02T10:57:07.450Z,4.03
2023-12-02T10:59:40.924Z,7.47
2023-12-02T11:02:26.711Z,5.03
2023-12-02T11:05:09.887Z,4.80
2023-12-02T11:07:41.521Z,4.65
2023-12-02T11:10:14.383Z,4.22
2023-12-02T11:12:50.284Z,4.25
2023-12-02T11:15:23.384Z,3.80
2023-12-02T11:17:59.133Z,3.35
2023-12-02T11:20:35.248Z,3.45
2023-12-02T11:23:31.236Z,3.92
2023-12-02T11:26:12.608Z,3.35
2023-12-02T11:28:54.636Z,2.83
2023-12-02T11:31:34.680Z,2.95
2023-12-02T11:36:52.881Z,2.58
2023-12-02T11:39:36.421Z,4.90
2023-12-02T11:42:14.041Z,4.40
2023-12-02T11:44:59.692Z,3.53
2023-12-02T11:47:41.214Z,3.70
2023-12-02T11:50:24.658Z,3.40
2023-12-02T11:53:08.214Z,3.22
2023-12-02T11:55:45.066Z,3.38
2023-12-02T11:58:24.695Z,3.03
2023-12-02T12:01:08.842Z,2.90
2023-12-02T12:03:47.971Z,3.10
2023-12-02T12:06:27.452Z,3.10
2023-12-02T12:09:06.372Z,2.80
2023-12-02T12:11:37.794Z,2.90
2023-12-02T12:14:08.513Z,2.78
2023-12-02T12:16:42.741Z,2.80
2023-12-02T12:19:11.662Z,3.03
2023-12-02T12:21:41.074Z,2.25
2023-12-02T12:24:09.781Z,2.50
2023-12-02T12:26:39.699Z,2.63
2023-12-02T12:29:07.792Z,2.30
2023-12-02T12:31:37.203Z,2.75
2023-12-02T12:34:06.309Z,2.63
2023-12-02T12:36:34.432Z,2.50
2023-12-02T12:39:02.603Z,2.50
2023-12-02T12:41:31.810Z,2.70
2023-12-02T12:44:04.807Z,2.57
2023-12-02T12:46:35.902Z,2.50
2023-12-02T12:49:07.502Z,2.58
2023-12-02T12:51:37.877Z,2.20
2023-12-02T12:54:10.478Z,2.47
2023-12-02T12:56:48.957Z,2.25
2023-12-02T12:59:20.545Z,2.20
2023-12-02T13:01:58.762Z,2.47
2023-12-02T13:04:33.156Z,2.28
2023-12-02T13:07:07.008Z,2.70
2023-12-02T13:09:35.301Z,2.33
2023-12-02T13:12:14.681Z,2.10
2023-12-02T13:14:48.769Z,2.20
2023-12-02T13:17:20.310Z,6.32
2023-12-02T13:19:49.483Z,5.18
2023-12-02T13:22:18.961Z,5.30
2023-12-02T13:24:53.249Z,4.75
2023-12-02T13:27:31.449Z,4.32
2023-12-02T13:30:05.592Z,4.30
2023-12-02T13:32:37.563Z,4.00
2023-12-02T13:35:07.590Z,3.88
2023-12-02T13:40:12.254Z,3.67
2023-12-02T13:42:41.922Z,3.70
2023-12-02T13:45:20.732Z,3.35
2023-12-02T13:48:03.796Z,3.13
2023-12-02T13:50:40.562Z,3.47
2023-12-02T13:53:20.038Z,3.60
2023-12-02T13:56:00.357Z,2.97
2023-12-02T13:58:39.297Z,3.08
2023-12-02T14:01:16.301Z,8.73
2023-12-02T14:04:02.042Z,6.60
2023-12-02T14:06:40.806Z,6.20
2023-12-02T14:09:10.624Z,5.50
2023-12-02T14:12:00.458Z,5.15
2023-12-02T14:14:49.852Z,8.18
2023-12-02T14:17:33.722Z,6.85
2023-12-02T14:20:19.649Z,7.43
2023-12-02T14:23:17.280Z,6.55
2023-12-02T14:26:05.079Z,6.50
2023-12-02T14:28:47.777Z,6.10
2023-12-02T14:31:41.159Z,5.78
2023-12-02T14:34:45.588Z,5.68
2023-12-02T14:37:46.605Z,5.38
2023-12-02T14:40:30.163Z,4.63
2023-12-02T14:43:11.832Z,5.25
2023-12-02T14:45:40.294Z,5.00
2023-12-02T14:48:15.021Z,4.85
2023-12-02T14:50:46.253Z,5.22
2023-12-02T14:53:18.312Z,5.20
2023-12-02T14:55:46.314Z,5.20
2023-12-02T14:58:25.807Z,5.05
2023-12-02T15:00:58.400Z,4.40
2023-12-02T15:03:30.874Z,4.55
2023-12-02T15:06:06.503Z,4.47
2023-12-02T15:08:40.099Z,4.50
2023-12-02T15:11:10.764Z,5.35
2023-12-02T15:13:39.374Z,5.53
2023-12-02T15:16:08.391Z,5.35
2023-12-02T15:18:39.484Z,7.20
2023-12-02T15:21:10.283Z,6.63
2023-12-02T15:23:50.470Z,6.70
2023-12-02T15:26:21.942Z,6.28
2023-12-02T15:28:55.717Z,6.07
2023-12-02T15:31:40.954Z,5.38
2023-12-02T15:34:11.985Z,5.47
2023-12-02T15:36:43.085Z,4.95
2023-12-02T15:39:14.357Z,4.70
2023-12-02T15:41:44.644Z,4.72
2023-12-02T15:44:13.595Z,4.32
2023-12-02T15:46:41.494Z,4.50
2023-12-02T15:49:10.602Z,3.95
2023-12-02T15:51:38.803Z,3.97
2023-12-02T15:54:12.004Z,7.78
2023-12-02T15:56:41.168Z,9.68
2023-12-02T15:59:12.446Z,7.40
2023-12-02T16:01:47.319Z,7.30
2023-12-02T16:04:19.042Z,6.45
2023-12-02T16:06:49.870Z,6.18
2023-12-02T16:09:34.892Z,5.88
2023-12-02T16:12:05.580Z,5.43
2023-12-02T16:14:34.433Z,5.25
2023-12-02T16:17:09.363Z,5.07
2023-12-02T16:19:37.480Z,4.72
2023-12-02T16:22:06.236Z,4.60
2023-12-02T16:24:35.542Z,4.40
2023-12-02T16:27:03.442Z,4.37
2023-12-02T16:29:31.846Z,4.28
2023-12-02T16:32:02.552Z,4.47
2023-12-02T16:34:33.872Z,3.97
2023-12-02T16:37:04.123Z,4.15
2023-12-02T16:39:33.338Z,3.33
2023-12-02T16:42:02.918Z,8.30
2023-12-02T16:44:31.413Z,10.00
2023-12-02T16:46:59.268Z,8.20
2023-12-02T16:49:27.396Z,7.20
2023-12-02T16:51:57.461Z,6.95
2023-12-02T16:54:33.951Z,7.28
2023-12-02T16:57:03.291Z,6.38
2023-12-02T16:59:50.791Z,6.00
2023-12-02T17:02:31.614Z,6.15
2023-12-02T17:05:00.207Z,5.57
2023-12-02T17:07:30.279Z,5.57
2023-12-02T17:12:29.372Z,5.23
2023-12-02T17:15:06.617Z,4.88
2023-12-02T17:17:36.790Z,4.70
2023-12-02T17:20:14.953Z,4.25
2023-12-02T17:22:43.741Z,4.40
2023-12-02T17:25:47.864Z,4.22
2023-12-02T17:28:17.572Z,4.53
2023-12-02T17:30:46.293Z,4.90
2023-12-02T17:33:17.269Z,4.38
2023-12-02T17:35:45.763Z,4.25
2023-12-02T17:38:13.637Z,5.57
2023-12-02T17:40:41.747Z,9.43
2023-12-02T17:43:09.809Z,8.10
2023-12-02T17:45:39.698Z,7.90
2023-12-02T17:50:39.912Z,7.32
2023-12-02T17:53:07.687Z,7.33
2023-12-02T17:55:35.728Z,6.63
2023-12-02T17:58:04.971Z,7.10
2023-12-02T18:00:32.866Z,6.40
2023-12-02T18:03:02.223Z,6.03
2023-12-02T18:05:30.759Z,6.18
2023-12-02T18:07:59.917Z,5.68
2023-12-02T18:10:28.422Z,5.47
2023-12-02T18:12:56.225Z,5.53
2023-12-02T18:15:24.086Z,5.47
2023-12-02T18:17:58.766Z,5.13
2023-12-02T18:20:28.248Z,5.65
2023-12-02T18:22:56.046Z,5.65
2023-12-02T18:25:27.315Z,5.40
2023-12-02T18:27:55.838Z,5.53
2023-12-02T18:30:26.087Z,5.10
2023-12-02T18:32:54.685Z,5.38
2023-12-02T18:35:24.862Z,5.28
2023-12-02T18:37:55.221Z,4.63
2023-12-02T18:40:26.573Z,5.25
2023-12-02T18:42:55.081Z,4.45
2023-12-02T18:45:23.937Z,4.28
2023-12-02T18:47:52.657Z,4.53
2023-12-02T18:50:21.590Z,4.78
2023-12-02T18:52:50.079Z,4.38
2023-12-02T18:55:19.528Z,4.20
2023-12-02T18:57:48.178Z,3.88
2023-12-02T19:00:16.822Z,4.13
2023-12-02T19:02:44.657Z,4.72
2023-12-02T19:05:14.123Z,4.22
2023-12-02T19:07:42.189Z,4.03
2023-12-02T19:10:10.731Z,5.03
2023-12-02T19:12:40.201Z,13.55
2023-12-02T19:15:08.991Z,9.82
2023-12-02T19:17:36.879Z,8.68
2023-12-02T19:20:05.688Z,8.43
2023-12-02T19:22:33.989Z,7.93
2023-12-02T19:25:02.938Z,8.02
2023-12-02T19:27:33.981Z,8.07
2023-12-02T19:30:05.254Z,7.55
2023-12-02T19:32:33.790Z,6.65
2023-12-02T19:35:02.869Z,6.95
2023-12-02T19:37:30.881Z,6.68
2023-12-02T19:40:00.055Z,4.30
2023-12-02T19:42:27.952Z,3.33
2023-12-02T19:44:55.810Z,3.30
2023-12-02T19:47:27.294Z,3.33
2023-12-02T19:49:55.061Z,3.03
2023-12-02T19:52:23.170Z,3.13
2023-12-02T19:54:51.855Z,3.10
2023-12-02T19:57:22.092Z,2.97
2023-12-02T19:59:54.367Z,2.90
2023-12-02T20:02:24.531Z,2.72
2023-12-02T20:04:53.787Z,2.47
2023-12-02T20:07:21.805Z,2.83
2023-12-02T20:09:49.601Z,2.45
2023-12-02T20:12:17.423Z,4.00
2023-12-02T20:14:46.704Z,4.20
2023-12-02T20:17:18.205Z,3.80
2023-12-02T20:19:48.323Z,3.47
2023-12-02T20:22:17.703Z,3.83
2023-12-02T20:24:46.101Z,3.35
2023-12-02T20:27:14.082Z,3.40
2023-12-02T20:29:42.016Z,3.30
2023-12-02T20:32:09.881Z,3.60
2023-12-02T20:34:38.969Z,3.17
2023-12-02T20:37:06.940Z,2.87
2023-12-02T20:39:38.778Z,2.80
2023-12-02T20:42:07.348Z,2.83
2023-12-02T20:44:35.357Z,3.10
2023-12-02T20:47:03.200Z,2.90
2023-12-02T20:49:33.799Z,3.00
2023-12-02T20:52:01.830Z,2.92
2023-12-02T20:54:47.312Z,2.83
2023-12-02T20:57:25.509Z,2.67
2023-12-02T20:59:53.320Z,2.60
2023-12-02T21:02:22.483Z,2.97
2023-12-02T21:04:50.403Z,2.93
2023-12-02T21:07:18.283Z,2.47
2023-12-02T21:09:46.171Z,3.47
2023-12-02T21:12:16.134Z,2.95
2023-12-02T21:14:45.893Z,2.75
2023-12-02T21:17:13.800Z,2.88
2023-12-02T21:19:41.812Z,2.95
2023-12-02T21:22:10.070Z,2.80
2023-12-02T21:24:37.881Z,2.50
2023-12-02T21:27:06.448Z,2.97
2023-12-02T21:29:35.559Z,2.55
2023-12-02T21:32:06.970Z,2.90
2023-12-02T21:34:35.934Z,2.80
2023-12-02T21:37:05.506Z,2.80
2023-12-02T21:39:35.394Z,2.83
2023-12-02T21:44:31.002Z,3.00
2023-12-02T21:47:04.303Z,3.03
2023-12-02T21:49:32.896Z,2.92
2023-12-02T21:52:00.932Z,3.00
2023-12-02T21:54:28.782Z,2.88
2023-12-02T21:57:00.200Z,2.90
2023-12-02T21:59:30.733Z,3.20
2023-12-02T22:02:00.338Z,3.03
2023-12-02T22:04:41.081Z,3.38
2023-12-02T22:07:14.505Z,3.47
2023-12-02T22:09:42.648Z,3.45
2023-12-02T22:12:32.893Z,3.25
2023-12-02T22:15:02.540Z,3.20
2023-12-02T22:17:32.982Z,3.60
2023-12-02T22:20:01.086Z,6.47
2023-12-02T22:22:54.631Z,9.95
2023-12-02T22:25:23.056Z,8.15
2023-12-02T22:27:58.975Z,7.65
2023-12-02T22:30:27.537Z,7.22
2023-12-02T22:33:00.020Z,9.65
2023-12-02T22:35:29.220Z,9.98
2023-12-02T22:37:58.340Z,9.60
2023-12-02T22:40:35.055Z,9.07
2023-12-02T22:43:06.430Z,8.63
2023-12-02T22:45:37.367Z,8.40
2023-12-02T22:48:16.754Z,8.45
2023-12-02T22:50:45.430Z,7.93
2023-12-02T22:53:30.263Z,8.02
2023-12-02T22:55:59.538Z,7.60
2023-12-02T22:58:28.216Z,7.37
2023-12-02T23:00:57.825Z,7.90
2023-12-02T23:03:28.519Z,7.55
2023-12-02T23:05:59.052Z,6.85
2023-12-02T23:08:29.090Z,6.60
2023-12-02T23:13:51.806Z,6.80
2023-12-02T23:16:36.342Z,6.40
2023-12-02T23:19:07.801Z,6.93
2023-12-02T23:21:36.191Z,6.70
2023-12-02T23:24:05.116Z,6.93
2023-12-02T23:26:34.256Z,6.22
2023-12-02T23:29:02.126Z,6.30
2023-12-02T23:31:30.227Z,5.78
2023-12-02T23:33:58.521Z,6.03
2023-12-02T23:36:29.741Z,5.80
2023-12-02T23:38:59.042Z,5.85
2023-12-02T23:41:27.124Z,5.40
2023-12-02T23:43:55.134Z,5.18
2023-12-02T23:46:26.493Z,5.40
2023-12-02T23:48:55.381Z,5.10
2023-12-02T23:51:23.264Z,5.53
2023-12-02T23:53:53.587Z,5.85
2023-12-02T23:56:23.083Z,5.50
2023-12-02T23:58:52.774Z,5.38
